sensor_id;sensor_type;location;lat;lon;timestamp;pressure;altitude;pressure_sealevel;temperature
15701;BMP180;7950;42.744;23.174;2023-02-12T00:01:52;95353.41;;;-1.50
15701;BMP180;7950;42.744;23.174;2023-02-12T00:04:20;95354.03;;;-1.56
15701;BMP180;7950;42.744;23.174;2023-02-12T00:06:50;95356.66;;;-1.48
15701;BMP180;7950;42.744;23.174;2023-02-12T00:09:21;95365.97;;;-1.47
15701;BMP180;7950;42.744;23.174;2023-02-12T00:11:50;95359.56;;;-1.43
15701;BMP180;7950;42.744;23.174;2023-02-12T00:14:18;95362.44;;;-1.46
15701;BMP180;7950;42.744;23.174;2023-02-12T00:16:47;95369.84;;;-1.43
15701;BMP180;7950;42.744;23.174;2023-02-12T00:19:15;95359.91;;;-1.38
15701;BMP180;7950;42.744;23.174;2023-02-12T00:21:44;95375.03;;;-1.35
15701;BMP180;7950;42.744;23.174;2023-02-12T00:24:14;95366.69;;;-1.29
15701;BMP180;7950;42.744;23.174;2023-02-12T00:26:43;95375.38;;;-1.30
15701;BMP180;7950;42.744;23.174;2023-02-12T00:29:11;95363.44;;;-1.31
15701;BMP180;7950;42.744;23.174;2023-02-12T00:31:40;95366.03;;;-1.31
15701;BMP180;7950;42.744;23.174;2023-02-12T00:34:10;95365.53;;;-1.34
15701;BMP180;7950;42.744;23.174;2023-02-12T00:36:38;95347.81;;;-1.37
15701;BMP180;7950;42.744;23.174;2023-02-12T00:39:08;95347.97;;;-1.47
15701;BMP180;7950;42.744;23.174;2023-02-12T00:41:38;95351.50;;;-1.48
15701;BMP180;7950;42.744;23.174;2023-02-12T00:44:07;95350.78;;;-1.58
15701;BMP180;7950;42.744;23.174;2023-02-12T00:46:45;95333.78;;;-1.51
15701;BMP180;7950;42.744;23.174;2023-02-12T00:49:13;95330.53;;;-1.53
15701;BMP180;7950;42.744;23.174;2023-02-12T00:51:42;95336.16;;;-1.57
15701;BMP180;7950;42.744;23.174;2023-02-12T00:54:10;95325.75;;;-1.48
15701;BMP180;7950;42.744;23.174;2023-02-12T00:56:41;95317.88;;;-1.46
15701;BMP180;7950;42.744;23.174;2023-02-12T00:59:09;95320.91;;;-1.51
15701;BMP180;7950;42.744;23.174;2023-02-12T01:01:38;95321.84;;;-1.60
15701;BMP180;7950;42.744;23.174;2023-02-12T01:04:06;95323.94;;;-1.55
15701;BMP180;7950;42.744;23.174;2023-02-12T01:06:35;95322.81;;;-1.53
15701;BMP180;7950;42.744;23.174;2023-02-12T01:09:03;95327.03;;;-1.44
15701;BMP180;7950;42.744;23.174;2023-02-12T01:11:32;95329.41;;;-1.58
15701;BMP180;7950;42.744;23.174;2023-02-12T01:14:02;95332.13;;;-1.60
15701;BMP180;7950;42.744;23.174;2023-02-12T01:16:31;95322.81;;;-1.53
15701;BMP180;7950;42.744;23.174;2023-02-12T01:19:04;95333.94;;;-1.52
15701;BMP180;7950;42.744;23.174;2023-02-12T01:21:34;95332.47;;;-1.55
15701;BMP180;7950;42.744;23.174;2023-02-12T01:24:03;95344.72;;;-1.49
15701;BMP180;7950;42.744;23.174;2023-02-12T01:26:31;95339.56;;;-1.49
15701;BMP180;7950;42.744;23.174;2023-02-12T01:29:05;95334.13;;;-1.46
15701;BMP180;7950;42.744;23.174;2023-02-12T01:31:37;95330.59;;;-1.45
15701;BMP180;7950;42.744;23.174;2023-02-12T01:34:08;95334.47;;;-1.41
15701;BMP180;7950;42.744;23.174;2023-02-12T01:36:37;95334.00;;;-1.36
15701;BMP180;7950;42.744;23.174;2023-02-12T01:39:06;95320.31;;;-1.37
15701;BMP180;7950;42.744;23.174;2023-02-12T01:41:39;95326.28;;;-1.36
15701;BMP180;7950;42.744;23.174;2023-02-12T01:44:15;95314.72;;;-1.32
15701;BMP180;7950;42.744;23.174;2023-02-12T01:46:45;95305.72;;;-1.28
15701;BMP180;7950;42.744;23.174;2023-02-12T01:49:20;95302.97;;;-1.27
15701;BMP180;7950;42.744;23.174;2023-02-12T01:51:53;95301.38;;;-1.28
15701;BMP180;7950;42.744;23.174;2023-02-12T01:54:23;95306.03;;;-1.31
15701;BMP180;7950;42.744;23.174;2023-02-12T01:56:53;95302.00;;;-1.34
15701;BMP180;7950;42.744;23.174;2023-02-12T01:59:23;95303.91;;;-1.36
15701;BMP180;7950;42.744;23.174;2023-02-12T02:01:53;95297.47;;;-1.40
15701;BMP180;7950;42.744;23.174;2023-02-12T02:04:26;95301.66;;;-1.31
15701;BMP180;7950;42.744;23.174;2023-02-12T02:06:58;95306.97;;;-1.40
15701;BMP180;7950;42.744;23.174;2023-02-12T02:09:28;95300.53;;;-1.44
15701;BMP180;7950;42.744;23.174;2023-02-12T02:11:58;95305.78;;;-1.54
15701;BMP180;7950;42.744;23.174;2023-02-12T02:14:46;95305.78;;;-1.54
15701;BMP180;7950;42.744;23.174;2023-02-12T02:17:45;95296.47;;;-1.55
15701;BMP180;7950;42.744;23.174;2023-02-12T02:21:02;95299.66;;;-1.61
15701;BMP180;7950;42.744;23.174;2023-02-12T02:24:02;95301.81;;;-1.82
15701;BMP180;7950;42.744;23.174;2023-02-12T02:27:14;95296.81;;;-1.83
15701;BMP180;7950;42.744;23.174;2023-02-12T02:30:27;95286.47;;;-1.91
15701;BMP180;7950;42.744;23.174;2023-02-12T02:33:22;95283.72;;;-1.98
15701;BMP180;7950;42.744;23.174;2023-02-12T02:36:02;95293.41;;;-2.17
15701;BMP180;7950;42.744;23.174;2023-02-12T02:39:02;95289.00;;;-1.99
15701;BMP180;7950;42.744;23.174;2023-02-12T02:41:37;95281.63;;;-2.02
15701;BMP180;7950;42.744;23.174;2023-02-12T02:44:14;95277.16;;;-1.92
15701;BMP180;7950;42.744;23.174;2023-02-12T02:46:48;95276.72;;;-1.88
15701;BMP180;7950;42.744;23.174;2023-02-12T02:49:22;95272.75;;;-2.08
15701;BMP180;7950;42.744;23.174;2023-02-12T02:51:59;95292.75;;;-1.94
15701;BMP180;7950;42.744;23.174;2023-02-12T02:54:35;95290.59;;;-2.06
15701;BMP180;7950;42.744;23.174;2023-02-12T02:57:12;95298.00;;;-2.03
15701;BMP180;7950;42.744;23.174;2023-02-12T02:59:47;95294.34;;;-1.93
15701;BMP180;7950;42.744;23.174;2023-02-12T03:02:24;95300.78;;;-1.89
15701;BMP180;7950;42.744;23.174;2023-02-12T03:05:00;95294.72;;;-1.88
15701;BMP180;7950;42.744;23.174;2023-02-12T03:07:36;95292.59;;;-1.92
15701;BMP180;7950;42.744;23.174;2023-02-12T03:10:11;95297.28;;;-1.88
15701;BMP180;7950;42.744;23.174;2023-02-12T03:12:46;95298.91;;;-1.87
15701;BMP180;7950;42.744;23.174;2023-02-12T03:15:24;95289.91;;;-1.83
15701;BMP180;7950;42.744;23.174;2023-02-12T03:17:57;95299.22;;;-1.82
15701;BMP180;7950;42.744;23.174;2023-02-12T03:20:42;95297.44;;;-1.81
15701;BMP180;7950;42.744;23.174;2023-02-12T03:23:17;95294.13;;;-1.74
15701;BMP180;7950;42.744;23.174;2023-02-12T03:25:53;95282.25;;;-1.67
15701;BMP180;7950;42.744;23.174;2023-02-12T03:28:29;95284.38;;;-1.62
15701;BMP180;7950;42.744;23.174;2023-02-12T03:31:07;95277.47;;;-1.54
15701;BMP180;7950;42.744;23.174;2023-02-12T03:33:53;95290.84;;;-1.50
15701;BMP180;7950;42.744;23.174;2023-02-12T03:36:40;95285.72;;;-1.50
15701;BMP180;7950;42.744;23.174;2023-02-12T03:39:17;95287.81;;;-1.46
15701;BMP180;7950;42.744;23.174;2023-02-12T03:42:02;95273.50;;;-1.40
15701;BMP180;7950;42.744;23.174;2023-02-12T03:44:47;95273.84;;;-1.35
15701;BMP180;7950;42.744;23.174;2023-02-12T03:47:24;95271.28;;;-1.27
15701;BMP180;7950;42.744;23.174;2023-02-12T03:50:02;95272.25;;;-1.20
15701;BMP180;7950;42.744;23.174;2023-02-12T03:52:34;95282.25;;;-1.17
15701;BMP180;7950;42.744;23.174;2023-02-12T03:55:04;95274.38;;;-1.16
15701;BMP180;7950;42.744;23.174;2023-02-12T03:57:43;95275.81;;;-1.13
15701;BMP180;7950;42.744;23.174;2023-02-12T04:00:18;95285.81;;;-1.10
15701;BMP180;7950;42.744;23.174;2023-02-12T04:02:47;95274.22;;;-1.06
15701;BMP180;7950;42.744;23.174;2023-02-12T04:05:21;95268.59;;;-1.02
15701;BMP180;7950;42.744;23.174;2023-02-12T04:07:56;95270.22;;;-1.01
15701;BMP180;7950;42.744;23.174;2023-02-12T04:10:32;95282.44;;;-1.03
15701;BMP180;7950;42.744;23.174;2023-02-12T04:13:16;95274.72;;;-1.03
15701;BMP180;7950;42.744;23.174;2023-02-12T04:16:01;95275.34;;;-1.01
15701;BMP180;7950;42.744;23.174;2023-02-12T04:18:40;95280.84;;;-0.96
15701;BMP180;7950;42.744;23.174;2023-02-12T04:21:29;95281.34;;;-0.92
15701;BMP180;7950;42.744;23.174;2023-02-12T04:24:09;95285.69;;;-0.93
15701;BMP180;7950;42.744;23.174;2023-02-12T04:26:49;95286.00;;;-0.88
15701;BMP180;7950;42.744;23.174;2023-02-12T04:29:27;95288.56;;;-0.88
15701;BMP180;7950;42.744;23.174;2023-02-12T04:32:06;95287.97;;;-0.82
15701;BMP180;7950;42.744;23.174;2023-02-12T04:34:48;95288.75;;;-0.81
15701;BMP180;7950;42.744;23.174;2023-02-12T04:37:24;95295.66;;;-0.74
15701;BMP180;7950;42.744;23.174;2023-02-12T04:39:55;95289.38;;;-0.71
15701;BMP180;7950;42.744;23.174;2023-02-12T04:42:24;95286.34;;;-0.67
15701;BMP180;7950;42.744;23.174;2023-02-12T04:44:52;95296.16;;;-0.62
15701;BMP180;7950;42.744;23.174;2023-02-12T04:47:21;95300.03;;;-0.58
15701;BMP180;7950;42.744;23.174;2023-02-12T04:49:51;95305.69;;;-0.55
15701;BMP180;7950;42.744;23.174;2023-02-12T04:52:21;95304.41;;;-0.51
15701;BMP180;7950;42.744;23.174;2023-02-12T04:54:49;95315.97;;;-0.47
15701;BMP180;7950;42.744;23.174;2023-02-12T04:57:17;95316.31;;;-0.42
15701;BMP180;7950;42.744;23.174;2023-02-12T04:59:46;95322.41;;;-0.35
15701;BMP180;7950;42.744;23.174;2023-02-12T05:02:14;95330.47;;;-0.30
15701;BMP180;7950;42.744;23.174;2023-02-12T05:04:43;95332.09;;;-0.29
15701;BMP180;7950;42.744;23.174;2023-02-12T05:07:11;95321.13;;;-0.23
15701;BMP180;7950;42.744;23.174;2023-02-12T05:09:41;95328.88;;;-0.15
15701;BMP180;7950;42.744;23.174;2023-02-12T05:12:10;95321.13;;;-0.07
15701;BMP180;7950;42.744;23.174;2023-02-12T05:14:38;95337.22;;;-0.05
15701;BMP180;7950;42.744;23.174;2023-02-12T05:17:07;95332.84;;;0.04
15701;BMP180;7950;42.744;23.174;2023-02-12T05:19:35;95333.19;;;0.01
15701;BMP180;7950;42.744;23.174;2023-02-12T05:22:04;95328.97;;;0.08
15701;BMP180;7950;42.744;23.174;2023-02-12T05:24:32;95330.56;;;0.17
15701;BMP180;7950;42.744;23.174;2023-02-12T05:27:02;95327.84;;;0.10
15701;BMP180;7950;42.744;23.174;2023-02-12T05:29:31;95337.84;;;0.22
15701;BMP180;7950;42.744;23.174;2023-02-12T05:31:59;95345.59;;;0.13
15701;BMP180;7950;42.744;23.174;2023-02-12T05:34:28;95340.09;;;0.25
15701;BMP180;7950;42.744;23.174;2023-02-12T05:36:57;95341.38;;;0.21
15701;BMP180;7950;42.744;23.174;2023-02-12T05:39:25;95340.09;;;0.25
15701;BMP180;7950;42.744;23.174;2023-02-12T05:41:54;95346.34;;;0.22
15701;BMP180;7950;42.744;23.174;2023-02-12T05:44:24;95361.38;;;0.10
15701;BMP180;7950;42.744;23.174;2023-02-12T05:46:52;95358.00;;;0.10
15701;BMP180;7950;42.744;23.174;2023-02-12T05:49:21;95349.47;;;0.09
15701;BMP180;7950;42.744;23.174;2023-02-12T05:51:49;95354.47;;;0.03
15701;BMP180;7950;42.744;23.174;2023-02-12T05:54:18;95356.41;;;0.01
15701;BMP180;7950;42.744;23.174;2023-02-12T05:56:47;95359.16;;;0.08
15701;BMP180;7950;42.744;23.174;2023-02-12T05:59:19;95358.47;;;0.22
15701;BMP180;7950;42.744;23.174;2023-02-12T06:01:51;95367.66;;;0.24
15701;BMP180;7950;42.744;23.174;2023-02-12T06:04:22;95360.75;;;0.25
15701;BMP180;7950;42.744;23.174;2023-02-12T06:06:53;95363.94;;;0.27
15701;BMP180;7950;42.744;23.174;2023-02-12T06:09:22;95350.72;;;0.30
15701;BMP180;7950;42.744;23.174;2023-02-12T06:11:51;95368.13;;;0.28
15701;BMP180;7950;42.744;23.174;2023-02-12T06:14:20;95363.16;;;0.18
15701;BMP180;7950;42.744;23.174;2023-02-12T06:16:54;95369.44;;;0.23
15701;BMP180;7950;42.744;23.174;2023-02-12T06:19:22;95364.47;;;0.14
15701;BMP180;7950;42.744;23.174;2023-02-12T06:22:02;95363.50;;;0.07
15701;BMP180;7950;42.744;23.174;2023-02-12T06:24:31;95362.03;;;0.13
15701;BMP180;7950;42.744;23.174;2023-02-12T06:26:59;95368.19;;;0.12
15701;BMP180;7950;42.744;23.174;2023-02-12T06:29:28;95360.59;;;0.18
15701;BMP180;7950;42.744;23.174;2023-02-12T06:31:58;95355.28;;;0.03
15701;BMP180;7950;42.744;23.174;2023-02-12T06:34:26;95359.16;;;0.16
15701;BMP180;7950;42.744;23.174;2023-02-12T06:36:55;95368.19;;;0.03
15701;BMP180;7950;42.744;23.174;2023-02-12T06:39:24;95374.31;;;0.03
15701;BMP180;7950;42.744;23.174;2023-02-12T06:41:53;95376.53;;;0.13
15701;BMP180;7950;42.744;23.174;2023-02-12T06:44:21;95381.22;;;0.18
15701;BMP180;7950;42.744;23.174;2023-02-12T06:46:49;95369.56;;;0.30
15701;BMP180;7950;42.744;23.174;2023-02-12T06:49:19;95371.03;;;0.32
15701;BMP180;7950;42.744;23.174;2023-02-12T06:51:48;95381.19;;;0.34
15701;BMP180;7950;42.744;23.174;2023-02-12T06:54:17;95382.31;;;0.32
15701;BMP180;7950;42.744;23.174;2023-02-12T06:56:45;95379.75;;;0.32
15701;BMP180;7950;42.744;23.174;2023-02-12T06:59:15;95377.63;;;0.35
15701;BMP180;7950;42.744;23.174;2023-02-12T07:02:34;95361.66;;;0.40
15701;BMP180;7950;42.744;23.174;2023-02-12T07:05:07;95372.31;;;0.37
15701;BMP180;7950;42.744;23.174;2023-02-12T07:07:36;95373.44;;;0.42
15701;BMP180;7950;42.744;23.174;2023-02-12T07:10:06;95378.44;;;0.44
15701;BMP180;7950;42.744;23.174;2023-02-12T07:12:35;95376.16;;;0.41
15701;BMP180;7950;42.744;23.174;2023-02-12T07:15:04;95375.53;;;0.39
15701;BMP180;7950;42.744;23.174;2023-02-12T07:17:32;95385.88;;;0.39
15701;BMP180;7950;42.744;23.174;2023-02-12T07:20:01;95377.47;;;0.45
15701;BMP180;7950;42.744;23.174;2023-02-12T07:22:34;95376.78;;;0.51
15701;BMP180;7950;42.744;23.174;2023-02-12T07:25:03;95371.63;;;0.51
15701;BMP180;7950;42.744;23.174;2023-02-12T07:27:36;95379.56;;;0.49
15701;BMP180;7950;42.744;23.174;2023-02-12T07:30:06;95383.28;;;0.47
15701;BMP180;7950;42.744;23.174;2023-02-12T07:32:35;95392.63;;;0.40
15701;BMP180;7950;42.744;23.174;2023-02-12T07:35:04;95373.44;;;0.42
15701;BMP180;7950;42.744;23.174;2023-02-12T07:37:35;95389.22;;;0.47
15701;BMP180;7950;42.744;23.174;2023-02-12T07:40:04;95376.16;;;0.49
15701;BMP180;7950;42.744;23.174;2023-02-12T07:42:33;95385.50;;;0.50
15701;BMP180;7950;42.744;23.174;2023-02-12T07:45:02;95385.84;;;0.47
15701;BMP180;7950;42.744;23.174;2023-02-12T07:47:30;95390.19;;;0.46
15701;BMP180;7950;42.744;23.174;2023-02-12T07:49:59;95390.38;;;0.45
15701;BMP180;7950;42.744;23.174;2023-02-12T07:52:27;95393.56;;;0.55
15701;BMP180;7950;42.744;23.174;2023-02-12T07:54:57;95386.31;;;0.58
15701;BMP180;7950;42.744;23.174;2023-02-12T07:57:26;95391.16;;;0.53
15701;BMP180;7950;42.744;23.174;2023-02-12T07:59:54;95390.34;;;0.53
15701;BMP180;7950;42.744;23.174;2023-02-12T08:02:23;95397.78;;;0.56
15701;BMP180;7950;42.744;23.174;2023-02-12T08:04:54;95390.34;;;0.53
15701;BMP180;7950;42.744;23.174;2023-02-12T08:07:24;95394.84;;;0.51
15701;BMP180;7950;42.744;23.174;2023-02-12T08:09:52;95398.44;;;0.42
15701;BMP180;7950;42.744;23.174;2023-02-12T08:12:22;95404.25;;;0.44
15701;BMP180;7950;42.744;23.174;2023-02-12T08:14:50;95401.66;;;0.52
15701;BMP180;7950;42.744;23.174;2023-02-12T08:17:20;95403.88;;;0.55
15701;BMP180;7950;42.744;23.174;2023-02-12T08:19:48;95404.69;;;0.55
15701;BMP180;7950;42.744;23.174;2023-02-12T08:22:17;95397.44;;;0.51
15701;BMP180;7950;42.744;23.174;2023-02-12T08:24:46;95411.00;;;0.61
15701;BMP180;7950;42.744;23.174;2023-02-12T08:27:15;95425.81;;;0.67
15701;BMP180;7950;42.744;23.174;2023-02-12T08:29:45;95425.66;;;0.68
15701;BMP180;7950;42.744;23.174;2023-02-12T08:32:13;95428.06;;;0.70
15701;BMP180;7950;42.744;23.174;2023-02-12T08:34:43;95428.53;;;0.73
15701;BMP180;7950;42.744;23.174;2023-02-12T08:37:11;95427.72;;;0.73
15701;BMP180;7950;42.744;23.174;2023-02-12T08:39:41;95433.84;;;0.80
15701;BMP180;7950;42.744;23.174;2023-02-12T08:42:09;95433.53;;;0.75
15701;BMP180;7950;42.744;23.174;2023-02-12T08:44:38;95437.41;;;0.79
15701;BMP180;7950;42.744;23.174;2023-02-12T08:47:08;95438.03;;;0.81
15701;BMP180;7950;42.744;23.174;2023-02-12T08:49:37;95437.56;;;0.77
15701;BMP180;7950;42.744;23.174;2023-02-12T08:52:05;95445.78;;;0.81
15701;BMP180;7950;42.744;23.174;2023-02-12T08:54:34;95448.03;;;0.84
15701;BMP180;7950;42.744;23.174;2023-02-12T08:57:02;95439.34;;;0.77
15701;BMP180;7950;42.744;23.174;2023-02-12T08:59:31;95455.97;;;0.74
15701;BMP180;7950;42.744;23.174;2023-02-12T09:01:59;95454.34;;;0.81
15701;BMP180;7950;42.744;23.174;2023-02-12T09:04:31;95457.06;;;0.88
15701;BMP180;7950;42.744;23.174;2023-02-12T09:07:02;95461.09;;;0.90
15701;BMP180;7950;42.744;23.174;2023-02-12T09:09:30;95464.47;;;0.99
15701;BMP180;7950;42.744;23.174;2023-02-12T09:11:59;95474.94;;;1.05
15701;BMP180;7950;42.744;23.174;2023-02-12T09:14:27;95477.81;;;1.10
15701;BMP180;7950;42.744;23.174;2023-02-12T09:16:55;95474.75;;;1.15
15701;BMP180;7950;42.744;23.174;2023-02-12T09:19:24;95473.16;;;1.14
15701;BMP180;7950;42.744;23.174;2023-02-12T09:21:55;95468.47;;;1.09
15701;BMP180;7950;42.744;23.174;2023-02-12T09:24:24;95472.66;;;1.10
15701;BMP180;7950;42.744;23.174;2023-02-12T09:26:54;95476.69;;;1.13
15701;BMP180;7950;42.744;23.174;2023-02-12T09:29:22;95474.75;;;1.15
15701;BMP180;7950;42.744;23.174;2023-02-12T09:31:51;95463.56;;;1.22
15701;BMP180;7950;42.744;23.174;2023-02-12T09:34:19;95471.78;;;1.26
15701;BMP180;7950;42.744;23.174;2023-02-12T09:36:48;95468.13;;;1.20
15701;BMP180;7950;42.744;23.174;2023-02-12T09:39:18;95467.31;;;1.20
15701;BMP180;7950;42.744;23.174;2023-02-12T09:42:30;95470.19;;;1.25
15701;BMP180;7950;42.744;23.174;2023-02-12T09:45:12;95475.34;;;1.25
15701;BMP180;7950;42.744;23.174;2023-02-12T09:47:49;95473.06;;;1.30
15701;BMP180;7950;42.744;23.174;2023-02-12T09:50:35;95469.00;;;1.35
15701;BMP180;7950;42.744;23.174;2023-02-12T09:53:05;95468.25;;;1.27
15701;BMP180;7950;42.744;23.174;2023-02-12T09:55:40;95482.78;;;1.28
15701;BMP180;7950;42.744;23.174;2023-02-12T09:58:15;95483.72;;;1.35
15701;BMP180;7950;42.744;23.174;2023-02-12T10:00:45;95485.50;;;1.34
15701;BMP180;7950;42.744;23.174;2023-02-12T10:03:16;95478.38;;;1.36
15701;BMP180;7950;42.744;23.174;2023-02-12T10:05:49;95483.06;;;1.41
15701;BMP180;7950;42.744;23.174;2023-02-12T10:08:45;95493.25;;;1.42
15701;BMP180;7950;42.744;23.174;2023-02-12T10:11:48;95484.19;;;1.38
15701;BMP180;7950;42.744;23.174;2023-02-12T10:14:51;95486.09;;;1.44
15701;BMP180;7950;42.744;23.174;2023-02-12T10:17:32;95489.22;;;1.40
15701;BMP180;7950;42.744;23.174;2023-02-12T10:20:41;95479.16;;;1.45
15701;BMP180;7950;42.744;23.174;2023-02-12T10:23:31;95487.84;;;1.52
15701;BMP180;7950;42.744;23.174;2023-02-12T10:26:12;95472.94;;;1.62
15701;BMP180;7950;42.744;23.174;2023-02-12T10:28:46;95481.66;;;1.61
15701;BMP180;7950;42.744;23.174;2023-02-12T10:31:24;95487.72;;;1.76
15701;BMP180;7950;42.744;23.174;2023-02-12T10:33:56;95482.66;;;1.90
15701;BMP180;7950;42.744;23.174;2023-02-12T10:36:39;95484.66;;;2.03
15701;BMP180;7950;42.744;23.174;2023-02-12T10:39:17;95476.84;;;2.11
15701;BMP180;7950;42.744;23.174;2023-02-12T10:41:54;95479.41;;;2.33
15701;BMP180;7950;42.744;23.174;2023-02-12T10:44:27;95475.47;;;2.60
15701;BMP180;7950;42.744;23.174;2023-02-12T10:46:56;95472.34;;;2.64
15701;BMP180;7950;42.744;23.174;2023-02-12T10:49:25;95471.38;;;2.80
15701;BMP180;7950;42.744;23.174;2023-02-12T10:52:09;95486.78;;;2.96
15701;BMP180;7950;42.744;23.174;2023-02-12T10:54:42;95481.53;;;3.04
15701;BMP180;7950;42.744;23.174;2023-02-12T10:57:19;95481.06;;;3.15
15701;BMP180;7950;42.744;23.174;2023-02-12T10:59:52;95470.16;;;3.05
15701;BMP180;7950;42.744;23.174;2023-02-12T11:02:29;95472.69;;;3.13
15701;BMP180;7950;42.744;23.174;2023-02-12T11:05:29;95479.47;;;3.14
15701;BMP180;7950;42.744;23.174;2023-02-12T11:07:59;95477.78;;;3.21
15701;BMP180;7950;42.744;23.174;2023-02-12T11:10:31;95482.59;;;3.09
15701;BMP180;7950;42.744;23.174;2023-02-12T11:13:01;95486.06;;;3.16
15701;BMP180;7950;42.744;23.174;2023-02-12T11:15:36;95485.19;;;3.24
15701;BMP180;7950;42.744;23.174;2023-02-12T11:18:07;95486.69;;;3.33
15701;BMP180;7950;42.744;23.174;2023-02-12T11:20:39;95487.69;;;3.32
15701;BMP180;7950;42.744;23.174;2023-02-12T11:23:25;95487.94;;;3.22
15701;BMP180;7950;42.744;23.174;2023-02-12T11:25:58;95484.00;;;3.26
15701;BMP180;7950;42.744;23.174;2023-02-12T11:28:28;95487.44;;;3.27
15701;BMP180;7950;42.744;23.174;2023-02-12T11:31:24;95479.03;;;3.25
15701;BMP180;7950;42.744;23.174;2023-02-12T11:34:13;95479.66;;;3.27
15701;BMP180;7950;42.744;23.174;2023-02-12T11:36:44;95478.66;;;3.28
15701;BMP180;7950;42.744;23.174;2023-02-12T11:39:23;95478.91;;;3.47
15701;BMP180;7950;42.744;23.174;2023-02-12T11:41:55;95485.53;;;3.50
15701;BMP180;7950;42.744;23.174;2023-02-12T11:44:29;95478.91;;;3.47
15701;BMP180;7950;42.744;23.174;2023-02-12T11:47:05;95484.28;;;3.46
15701;BMP180;7950;42.744;23.174;2023-02-12T11:49:40;95496.63;;;3.58
15701;BMP180;7950;42.744;23.174;2023-02-12T11:52:20;95480.06;;;3.59
15701;BMP180;7950;42.744;23.174;2023-02-12T11:54:52;95473.72;;;3.62
15701;BMP180;7950;42.744;23.174;2023-02-12T11:57:36;95473.34;;;3.65
15701;BMP180;7950;42.744;23.174;2023-02-12T12:00:13;95493.72;;;3.68
15701;BMP180;7950;42.744;23.174;2023-02-12T12:02:48;95478.25;;;3.74
15701;BMP180;7950;42.744;23.174;2023-02-12T12:05:20;95486.09;;;3.81
15701;BMP180;7950;42.744;23.174;2023-02-12T12:08:18;95477.28;;;3.61
15701;BMP180;7950;42.744;23.174;2023-02-12T12:10:55;95481.13;;;3.65
15701;BMP180;7950;42.744;23.174;2023-02-12T12:13:32;95480.34;;;3.50
15701;BMP180;7950;42.744;23.174;2023-02-12T12:16:21;95479.91;;;3.46
15701;BMP180;7950;42.744;23.174;2023-02-12T12:19:19;95489.38;;;3.54
15701;BMP180;7950;42.744;23.174;2023-02-12T12:22:22;95473.06;;;3.60
15701;BMP180;7950;42.744;23.174;2023-02-12T12:24:57;95484.69;;;3.64
15701;BMP180;7950;42.744;23.174;2023-02-12T12:27:36;95487.84;;;3.59
15701;BMP180;7950;42.744;23.174;2023-02-12T12:30:38;95476.56;;;3.67
15701;BMP180;7950;42.744;23.174;2023-02-12T12:33:16;95488.72;;;3.66
15701;BMP180;7950;42.744;23.174;2023-02-12T12:36:03;95486.94;;;3.67
15701;BMP180;7950;42.744;23.174;2023-02-12T12:38:47;95491.03;;;3.76
15701;BMP180;7950;42.744;23.174;2023-02-12T12:41:32;95494.13;;;3.86
15701;BMP180;7950;42.744;23.174;2023-02-12T12:44:38;95484.28;;;3.96
15701;BMP180;7950;42.744;23.174;2023-02-12T12:47:24;95488.78;;;3.87
15701;BMP180;7950;42.744;23.174;2023-02-12T12:50:19;95492.44;;;3.93
15701;BMP180;7950;42.744;23.174;2023-02-12T12:53:14;95490.75;;;4.06
15701;BMP180;7950;42.744;23.174;2023-02-12T12:56:01;95497.81;;;3.91
15701;BMP180;7950;42.744;23.174;2023-02-12T12:58:48;95506.94;;;3.87
15701;BMP180;7950;42.744;23.174;2023-02-12T13:01:55;95503.56;;;3.87
15701;BMP180;7950;42.744;23.174;2023-02-12T13:05:11;95505.88;;;3.82
15701;BMP180;7950;42.744;23.174;2023-02-12T13:08:01;95515.47;;;3.81
15701;BMP180;7950;42.744;23.174;2023-02-12T13:10:38;95518.50;;;3.70
15701;BMP180;7950;42.744;23.174;2023-02-12T13:13:21;95517.47;;;3.65
15701;BMP180;7950;42.744;23.174;2023-02-12T13:16:03;95521.91;;;3.71
15701;BMP180;7950;42.744;23.174;2023-02-12T13:18:47;95521.28;;;3.69
15701;BMP180;7950;42.744;23.174;2023-02-12T13:21:43;95531.81;;;3.82
15701;BMP180;7950;42.744;23.174;2023-02-12T13:24:28;95529.53;;;3.72
15701;BMP180;7950;42.744;23.174;2023-02-12T13:27:01;95524.53;;;3.71
15701;BMP180;7950;42.744;23.174;2023-02-12T13:29:38;95532.47;;;3.69
15701;BMP180;7950;42.744;23.174;2023-02-12T13:32:14;95523.53;;;3.72
15701;BMP180;7950;42.744;23.174;2023-02-12T13:34:44;95536.94;;;3.75
15701;BMP180;7950;42.744;23.174;2023-02-12T13:37:18;95529.78;;;3.77
15701;BMP180;7950;42.744;23.174;2023-02-12T13:39:50;95529.06;;;3.83
15701;BMP180;7950;42.744;23.174;2023-02-12T13:42:40;95531.91;;;3.88
15701;BMP180;7950;42.744;23.174;2023-02-12T13:45:33;95539.25;;;3.85
15701;BMP180;7950;42.744;23.174;2023-02-12T13:48:32;95542.41;;;3.80
15701;BMP180;7950;42.744;23.174;2023-02-12T13:51:13;95534.72;;;3.87
15701;BMP180;7950;42.744;23.174;2023-02-12T13:53:57;95542.41;;;3.80
15701;BMP180;7950;42.744;23.174;2023-02-12T13:56:40;95531.66;;;3.83
15701;BMP180;7950;42.744;23.174;2023-02-12T13:59:39;95547.78;;;3.79
15701;BMP180;7950;42.744;23.174;2023-02-12T14:02:41;95542.69;;;3.71
15701;BMP180;7950;42.744;23.174;2023-02-12T14:05:23;95546.97;;;3.64
15701;BMP180;7950;42.744;23.174;2023-02-12T14:07:55;95545.38;;;3.63
15701;BMP180;7950;42.744;23.174;2023-02-12T14:10:29;95539.84;;;3.51
15701;BMP180;7950;42.744;23.174;2023-02-12T14:13:14;95562.38;;;3.51
15701;BMP180;7950;42.744;23.174;2023-02-12T14:15:46;95570.88;;;3.45
15701;BMP180;7950;42.744;23.174;2023-02-12T14:18:34;95571.22;;;3.42
15701;BMP180;7950;42.744;23.174;2023-02-12T14:21:34;95567.38;;;3.52
15701;BMP180;7950;42.744;23.174;2023-02-12T14:25:04;95574.28;;;3.45
15701;BMP180;7950;42.744;23.174;2023-02-12T14:27:53;95579.88;;;3.34
15701;BMP180;7950;42.744;23.174;2023-02-12T14:30:32;95569.00;;;3.39
15701;BMP180;7950;42.744;23.174;2023-02-12T14:33:22;95577.47;;;3.33
15701;BMP180;7950;42.744;23.174;2023-02-12T14:36:35;95584.38;;;3.26
15701;BMP180;7950;42.744;23.174;2023-02-12T14:39:28;95595.25;;;3.21
15701;BMP180;7950;42.744;23.174;2023-02-12T14:42:42;95595.31;;;3.13
15701;BMP180;7950;42.744;23.174;2023-02-12T14:48:05;95608.66;;;3.10
15701;BMP180;7950;42.744;23.174;2023-02-12T14:50:41;95608.81;;;3.09
15701;BMP180;7950;42.744;23.174;2023-02-12T14:53:28;95604.47;;;3.09
15701;BMP180;7950;42.744;23.174;2023-02-12T14:55:58;95613.50;;;2.91
15701;BMP180;7950;42.744;23.174;2023-02-12T14:58:28;95619.16;;;2.94
15701;BMP180;7950;42.744;23.174;2023-02-12T15:01:00;95619.16;;;2.94
15701;BMP180;7950;42.744;23.174;2023-02-12T15:04:09;95623.88;;;2.91
15701;BMP180;7950;42.744;23.174;2023-02-12T15:06:48;95626.19;;;2.86
15701;BMP180;7950;42.744;23.174;2023-02-12T15:09:25;95634.31;;;2.83
15701;BMP180;7950;42.744;23.174;2023-02-12T15:12:09;95641.97;;;2.76